Aviation Digital Data Service (ADDS)

Output produced by METARs form (0419 UTC 19 February 2019)
found at http://www.aviationweather.gov/metar/data/
 
METAR text: ZGNN 190400Z VRB01MPS 7000 SCT005 OVC026 13/12 Q1017 NOSIG
Conditions at: ZGNN (NANNING/WUXU , CN) observed 0400 UTC 19 February 2019
Temperature: 13.0°C (55°F)
Dewpoint: 12.0°C (54°F) [RH = 94%]
Pressure (altimeter): 30.03 inches Hg (1017.0 mb)
Winds: variable direction winds at 2 MPH (2 knots; 1.0 m/s)
Visibility: 4 miles ( 7 km)
Ceiling: 2600 feet AGL
Clouds: scattered clouds at 500 feet AGL
overcast cloud deck at 2600 feet AGL
Weather: no significant weather observed at this time

METAR text: ZGNN 190300Z VRB01MPS 6000 FEW004 SCT006 OVC026 13/12 Q1018 NOSIG
Conditions at: ZGNN (NANNING/WUXU , CN) observed 0300 UTC 19 February 2019
Temperature: 13.0°C (55°F)
Dewpoint: 12.0°C (54°F) [RH = 94%]
Pressure (altimeter): 30.06 inches Hg (1018.0 mb)
Winds: variable direction winds at 2 MPH (2 knots; 1.0 m/s)
Visibility: 4 miles ( 6 km)
Ceiling: 2600 feet AGL
Clouds: few clouds at 400 feet AGL
scattered clouds at 600 feet AGL
overcast cloud deck at 2600 feet AGL
Weather: no significant weather observed at this time

METAR text: ZGNN 190200Z 05002MPS 020V080 5000 BR FEW004 SCT006 OVC026 12/11 Q1017 NOSIG
Conditions at: ZGNN (NANNING/WUXU , CN) observed 0200 UTC 19 February 2019
Temperature: 12.0°C (54°F)
Dewpoint: 11.0°C (52°F) [RH = 94%]
Pressure (altimeter): 30.03 inches Hg (1017.0 mb)
Winds: from the NE (50 degrees) at 5 MPH (4 knots; 2.1 m/s)
Visibility: 3 miles ( 5 km)
Ceiling: 2600 feet AGL
Clouds: few clouds at 400 feet AGL
scattered clouds at 600 feet AGL
overcast cloud deck at 2600 feet AGL
Weather: BR  (mist)

METAR text: ZGNN 190100Z 07003MPS 9999 SCT007 SCT013 12/11 Q1016 NOSIG
Conditions at: ZGNN (NANNING/WUXU , CN) observed 0100 UTC 19 February 2019
Temperature: 12.0°C (54°F)
Dewpoint: 11.0°C (52°F) [RH = 94%]
Pressure (altimeter): 30.00 inches Hg (1016.0 mb)
Winds: from the ENE (70 degrees) at 7 MPH (6 knots; 3.1 m/s)
Visibility: 6 or more miles (10+ km)
Ceiling: at least 12,000 feet AGL
Clouds: scattered clouds at 700 feet AGL
scattered clouds at 1300 feet AGL
Weather: no significant weather observed at this time

METAR text: ZGNN 190000Z 03003MPS 010V090 9999 SCT005 SCT013 11/10 Q1016 NOSIG
Conditions at: ZGNN (NANNING/WUXU , CN) observed 0000 UTC 19 February 2019
Temperature: 11.0°C (52°F)
Dewpoint: 10.0°C (50°F) [RH = 94%]
Pressure (altimeter): 30.00 inches Hg (1016.0 mb)
Winds: from the NNE (30 degrees) at 7 MPH (6 knots; 3.1 m/s)
Visibility: 6 or more miles (10+ km)
Ceiling: at least 12,000 feet AGL
Clouds: scattered clouds at 500 feet AGL
scattered clouds at 1300 feet AGL
Weather: no significant weather observed at this time

METAR text: ZGNN 182300Z 03003MPS 9999 -RA FEW003 SCT007 OVC030 11/11 Q1016 NOSIG
Conditions at: ZGNN (NANNING/WUXU , CN) observed 2300 UTC 18 February 2019
Temperature: 11.0°C (52°F)
Dewpoint: 11.0°C (52°F) [RH = 100%]
Pressure (altimeter): 30.00 inches Hg (1016.0 mb)
Winds: from the NNE (30 degrees) at 7 MPH (6 knots; 3.1 m/s)
Visibility: 6 or more miles (10+ km)
Ceiling: 3000 feet AGL
Clouds: few clouds at 300 feet AGL
scattered clouds at 700 feet AGL
overcast cloud deck at 3000 feet AGL
Weather: -RA  (light rain)

METAR text: ZGNN 182200Z 35003MPS 3500 -RA BR FEW001 SCT004 OVC020 11/11 Q1015 NOSIG
Conditions at: ZGNN (NANNING/WUXU , CN) observed 2200 UTC 18 February 2019
Temperature: 11.0°C (52°F)
Dewpoint: 11.0°C (52°F) [RH = 100%]
Pressure (altimeter): 29.97 inches Hg (1015.0 mb)
Winds: from the N (350 degrees) at 7 MPH (6 knots; 3.1 m/s)
Visibility: 2.17 miles (3.49 km)
Ceiling: 2000 feet AGL
Clouds: few clouds at 100 feet AGL
scattered clouds at 400 feet AGL
overcast cloud deck at 2000 feet AGL
Weather: -RA BR  (light rain, mist)

METAR text: ZGNN 182100Z 06002MPS 2500 -RA BR FEW002 SCT004 OVC023 11/11 Q1014 NOSIG
Conditions at: ZGNN (NANNING/WUXU , CN) observed 2100 UTC 18 February 2019
Temperature: 11.0°C (52°F)
Dewpoint: 11.0°C (52°F) [RH = 100%]
Pressure (altimeter): 29.94 inches Hg (1014.0 mb)
Winds: from the ENE (60 degrees) at 5 MPH (4 knots; 2.1 m/s)
Visibility: 1.55 miles (2.49 km)
Ceiling: 2300 feet AGL
Clouds: few clouds at 200 feet AGL
scattered clouds at 400 feet AGL
overcast cloud deck at 2300 feet AGL
Weather: -RA BR  (light rain, mist)

METAR text: ZGNN 182000Z 08003MPS 2000 -RA BR FEW001 SCT004 OVC023 11/11 Q1014 NOSIG
Conditions at: ZGNN (NANNING/WUXU , CN) observed 2000 UTC 18 February 2019
Temperature: 11.0°C (52°F)
Dewpoint: 11.0°C (52°F) [RH = 100%]
Pressure (altimeter): 29.94 inches Hg (1014.0 mb)
Winds: from the E (80 degrees) at 7 MPH (6 knots; 3.1 m/s)
Visibility: 1.24 miles (2.00 km)
Ceiling: 2300 feet AGL
Clouds: few clouds at 100 feet AGL
scattered clouds at 400 feet AGL
overcast cloud deck at 2300 feet AGL
Weather: -RA BR  (light rain, mist)

METAR text: ZGNN 181900Z 06003MPS 3000 -RA BR FEW002 SCT004 OVC026 11/11 Q1014 NOSIG
Conditions at: ZGNN (NANNING/WUXU , CN) observed 1900 UTC 18 February 2019
Temperature: 11.0°C (52°F)
Dewpoint: 11.0°C (52°F) [RH = 100%]
Pressure (altimeter): 29.94 inches Hg (1014.0 mb)
Winds: from the ENE (60 degrees) at 7 MPH (6 knots; 3.1 m/s)
Visibility: 1.86 miles (2.99 km)
Ceiling: 2600 feet AGL
Clouds: few clouds at 200 feet AGL
scattered clouds at 400 feet AGL
overcast cloud deck at 2600 feet AGL
Weather: -RA BR  (light rain, mist)

METAR text: ZGNN 181800Z 05003MPS 4000 -DZ BR FEW002 SCT004 OVC026 11/11 Q1015 NOSIG
Conditions at: ZGNN (NANNING/WUXU , CN) observed 1800 UTC 18 February 2019
Temperature: 11.0°C (52°F)
Dewpoint: 11.0°C (52°F) [RH = 100%]
Pressure (altimeter): 29.97 inches Hg (1015.0 mb)
Winds: from the NE (50 degrees) at 7 MPH (6 knots; 3.1 m/s)
Visibility: 2.49 miles (4.01 km)
Ceiling: 2600 feet AGL
Clouds: few clouds at 200 feet AGL
scattered clouds at 400 feet AGL
overcast cloud deck at 2600 feet AGL
Weather: -DZ BR  (light drizzle, mist)

METAR text: ZGNN 181700Z 06002MPS 2800 -RA BR SCT002 SCT004 OVC026 12/11 Q1015 NOSIG
Conditions at: ZGNN (NANNING/WUXU , CN) observed 1700 UTC 18 February 2019
Temperature: 12.0°C (54°F)
Dewpoint: 11.0°C (52°F) [RH = 94%]
Pressure (altimeter): 29.97 inches Hg (1015.0 mb)
Winds: from the ENE (60 degrees) at 5 MPH (4 knots; 2.1 m/s)
Visibility: 1.74 miles (2.80 km)
Ceiling: 2600 feet AGL
Clouds: scattered clouds at 200 feet AGL
scattered clouds at 400 feet AGL
overcast cloud deck at 2600 feet AGL
Weather: -RA BR  (light rain, mist)

METAR text: ZGNN 181600Z 08003MPS 060V120 2800 -RA BR FEW002 SCT004 OVC026 12/11 Q1015 NOSIG
Conditions at: ZGNN (NANNING/WUXU , CN) observed 1600 UTC 18 February 2019
Temperature: 12.0°C (54°F)
Dewpoint: 11.0°C (52°F) [RH = 94%]
Pressure (altimeter): 29.97 inches Hg (1015.0 mb)
Winds: from the E (80 degrees) at 7 MPH (6 knots; 3.1 m/s)
Visibility: 1.74 miles (2.80 km)
Ceiling: 2600 feet AGL
Clouds: few clouds at 200 feet AGL
scattered clouds at 400 feet AGL
overcast cloud deck at 2600 feet AGL
Weather: -RA BR  (light rain, mist)

METAR text: ZGNN 181500Z 08002MPS 060V150 4500 -DZ BR FEW006 SCT009 OVC030 12/11 Q1015 NOSIG
Conditions at: ZGNN (NANNING/WUXU , CN) observed 1500 UTC 18 February 2019
Temperature: 12.0°C (54°F)
Dewpoint: 11.0°C (52°F) [RH = 94%]
Pressure (altimeter): 29.97 inches Hg (1015.0 mb)
Winds: from the E (80 degrees) at 5 MPH (4 knots; 2.1 m/s)
Visibility: 2.80 miles (4.51 km)
Ceiling: 3000 feet AGL
Clouds: few clouds at 600 feet AGL
scattered clouds at 900 feet AGL
overcast cloud deck at 3000 feet AGL
Weather: -DZ BR  (light drizzle, mist)

METAR text: ZGNN 181400Z 08003MPS 8000 -DZ SCT010 OVC033 12/10 Q1014 NOSIG
Conditions at: ZGNN (NANNING/WUXU , CN) observed 1400 UTC 18 February 2019
Temperature: 12.0°C (54°F)
Dewpoint: 10.0°C (50°F) [RH = 88%]
Pressure (altimeter): 29.94 inches Hg (1014.0 mb)
Winds: from the E (80 degrees) at 7 MPH (6 knots; 3.1 m/s)
Visibility: 5 miles ( 8 km)
Ceiling: 3300 feet AGL
Clouds: scattered clouds at 1000 feet AGL
overcast cloud deck at 3300 feet AGL
Weather: -DZ  (light drizzle)

METAR text: ZGNN 181300Z 07005MPS 9999 SCT013 OVC033 13/10 Q1013 NOSIG
Conditions at: ZGNN (NANNING/WUXU , CN) observed 1300 UTC 18 February 2019
Temperature: 13.0°C (55°F)
Dewpoint: 10.0°C (50°F) [RH = 82%]
Pressure (altimeter): 29.91 inches Hg (1013.0 mb)
Winds: from the ENE (70 degrees) at 12 MPH (10 knots; 5.1 m/s)
Visibility: 6 or more miles (10+ km)
Ceiling: 3300 feet AGL
Clouds: scattered clouds at 1300 feet AGL
overcast cloud deck at 3300 feet AGL
Weather: no significant weather observed at this time

METAR text: ZGNN 181200Z 09003MPS 040V120 9999 SCT010 OVC033 13/11 Q1012 NOSIG
Conditions at: ZGNN (NANNING/WUXU , CN) observed 1200 UTC 18 February 2019
Temperature: 13.0°C (55°F)
Dewpoint: 11.0°C (52°F) [RH = 88%]
Pressure (altimeter): 29.88 inches Hg (1012.0 mb)
Winds: from the E (90 degrees) at 7 MPH (6 knots; 3.1 m/s)
Visibility: 6 or more miles (10+ km)
Ceiling: 3300 feet AGL
Clouds: scattered clouds at 1000 feet AGL
overcast cloud deck at 3300 feet AGL
Weather: no significant weather observed at this time

METAR text: ZGNN 181100Z 09004MPS 9999 SCT010 OVC033 13/11 Q1011 NOSIG
Conditions at: ZGNN (NANNING/WUXU , CN) observed 1100 UTC 18 February 2019
Temperature: 13.0°C (55°F)
Dewpoint: 11.0°C (52°F) [RH = 88%]
Pressure (altimeter): 29.85 inches Hg (1011.0 mb)
Winds: from the E (90 degrees) at 9 MPH (8 knots; 4.1 m/s)
Visibility: 6 or more miles (10+ km)
Ceiling: 3300 feet AGL
Clouds: scattered clouds at 1000 feet AGL
overcast cloud deck at 3300 feet AGL
Weather: no significant weather observed at this time

METAR text: ZGNN 181000Z 07004MPS 040V110 9999 SCT010 OVC033 14/11 Q1011 NOSIG
Conditions at: ZGNN (NANNING/WUXU , CN) observed 1000 UTC 18 February 2019
Temperature: 14.0°C (57°F)
Dewpoint: 11.0°C (52°F) [RH = 82%]
Pressure (altimeter): 29.85 inches Hg (1011.0 mb)
Winds: from the ENE (70 degrees) at 9 MPH (8 knots; 4.1 m/s)
Visibility: 6 or more miles (10+ km)
Ceiling: 3300 feet AGL
Clouds: scattered clouds at 1000 feet AGL
overcast cloud deck at 3300 feet AGL
Weather: no significant weather observed at this time

METAR text: ZGNN 180900Z 09004MPS 060V120 9999 SCT010 OVC036 14/12 Q1011 NOSIG
Conditions at: ZGNN (NANNING/WUXU , CN) observed 0900 UTC 18 February 2019
Temperature: 14.0°C (57°F)
Dewpoint: 12.0°C (54°F) [RH = 88%]
Pressure (altimeter): 29.85 inches Hg (1011.0 mb)
Winds: from the E (90 degrees) at 9 MPH (8 knots; 4.1 m/s)
Visibility: 6 or more miles (10+ km)
Ceiling: 3600 feet AGL
Clouds: scattered clouds at 1000 feet AGL
overcast cloud deck at 3600 feet AGL
Weather: no significant weather observed at this time

METAR text: ZGNN 180800Z 09004MPS 060V130 9999 SCT010 OVC036 15/12 Q1010 NOSIG
Conditions at: ZGNN (NANNING/WUXU , CN) observed 0800 UTC 18 February 2019
Temperature: 15.0°C (59°F)
Dewpoint: 12.0°C (54°F) [RH = 82%]
Pressure (altimeter): 29.82 inches Hg (1010.0 mb)
Winds: from the E (90 degrees) at 9 MPH (8 knots; 4.1 m/s)
Visibility: 6 or more miles (10+ km)
Ceiling: 3600 feet AGL
Clouds: scattered clouds at 1000 feet AGL
overcast cloud deck at 3600 feet AGL
Weather: no significant weather observed at this time

METAR text: ZGNN 180700Z 09002MPS 060V150 9999 SCT009 OVC036 14/12 Q1012 NOSIG
Conditions at: ZGNN (NANNING/WUXU , CN) observed 0700 UTC 18 February 2019
Temperature: 14.0°C (57°F)
Dewpoint: 12.0°C (54°F) [RH = 88%]
Pressure (altimeter): 29.88 inches Hg (1012.0 mb)
Winds: from the E (90 degrees) at 5 MPH (4 knots; 2.1 m/s)
Visibility: 6 or more miles (10+ km)
Ceiling: 3600 feet AGL
Clouds: scattered clouds at 900 feet AGL
overcast cloud deck at 3600 feet AGL
Weather: no significant weather observed at this time

METAR text: ZGNN 180600Z 08003MPS 050V140 9999 SCT009 OVC036 14/12 Q1012 NOSIG
Conditions at: ZGNN (NANNING/WUXU , CN) observed 0600 UTC 18 February 2019
Temperature: 14.0°C (57°F)
Dewpoint: 12.0°C (54°F) [RH = 88%]
Pressure (altimeter): 29.88 inches Hg (1012.0 mb)
Winds: from the E (80 degrees) at 7 MPH (6 knots; 3.1 m/s)
Visibility: 6 or more miles (10+ km)
Ceiling: 3600 feet AGL
Clouds: scattered clouds at 900 feet AGL
overcast cloud deck at 3600 feet AGL
Weather: no significant weather observed at this time

METAR text: ZGNN 180500Z 03003MPS 360V070 9999 SCT008 OVC036 14/11 Q1013 NOSIG
Conditions at: ZGNN (NANNING/WUXU , CN) observed 0500 UTC 18 February 2019
Temperature: 14.0°C (57°F)
Dewpoint: 11.0°C (52°F) [RH = 82%]
Pressure (altimeter): 29.91 inches Hg (1013.0 mb)
Winds: from the NNE (30 degrees) at 7 MPH (6 knots; 3.1 m/s)
Visibility: 6 or more miles (10+ km)
Ceiling: 3600 feet AGL
Clouds: scattered clouds at 800 feet AGL
overcast cloud deck at 3600 feet AGL
Weather: no significant weather observed at this time

METAR text: ZGNN 180400Z 04002MPS 350V060 9999 -RA SCT007 OVC033 12/11 Q1014 NOSIG
Conditions at: ZGNN (NANNING/WUXU , CN) observed 0400 UTC 18 February 2019
Temperature: 12.0°C (54°F)
Dewpoint: 11.0°C (52°F) [RH = 94%]
Pressure (altimeter): 29.94 inches Hg (1014.0 mb)
Winds: from the NE (40 degrees) at 5 MPH (4 knots; 2.1 m/s)
Visibility: 6 or more miles (10+ km)
Ceiling: 3300 feet AGL
Clouds: scattered clouds at 700 feet AGL
overcast cloud deck at 3300 feet AGL
Weather: -RA  (light rain)

METAR text: ZGNN 180300Z 03002MPS 350V080 9999 -RA SCT006 OVC033 12/11 Q1015 NOSIG
Conditions at: ZGNN (NANNING/WUXU , CN) observed 0300 UTC 18 February 2019
Temperature: 12.0°C (54°F)
Dewpoint: 11.0°C (52°F) [RH = 94%]
Pressure (altimeter): 29.97 inches Hg (1015.0 mb)
Winds: from the NNE (30 degrees) at 5 MPH (4 knots; 2.1 m/s)
Visibility: 6 or more miles (10+ km)
Ceiling: 3300 feet AGL
Clouds: scattered clouds at 600 feet AGL
overcast cloud deck at 3300 feet AGL
Weather: -RA  (light rain)

METAR text: ZGNN 180200Z 07003MPS 040V110 9999 SCT009 OVC033 11/10 Q1015 NOSIG
Conditions at: ZGNN (NANNING/WUXU , CN) observed 0200 UTC 18 February 2019
Temperature: 11.0°C (52°F)
Dewpoint: 10.0°C (50°F) [RH = 94%]
Pressure (altimeter): 29.97 inches Hg (1015.0 mb)
Winds: from the ENE (70 degrees) at 7 MPH (6 knots; 3.1 m/s)
Visibility: 6 or more miles (10+ km)
Ceiling: 3300 feet AGL
Clouds: scattered clouds at 900 feet AGL
overcast cloud deck at 3300 feet AGL
Weather: no significant weather observed at this time

METAR text: ZGNN 180100Z 02004MPS 9999 SCT009 OVC033 11/11 Q1014 NOSIG
Conditions at: ZGNN (NANNING/WUXU , CN) observed 0100 UTC 18 February 2019
Temperature: 11.0°C (52°F)
Dewpoint: 11.0°C (52°F) [RH = 100%]
Pressure (altimeter): 29.94 inches Hg (1014.0 mb)
Winds: from the NNE (20 degrees) at 9 MPH (8 knots; 4.1 m/s)
Visibility: 6 or more miles (10+ km)
Ceiling: 3300 feet AGL
Clouds: scattered clouds at 900 feet AGL
overcast cloud deck at 3300 feet AGL
Weather: no significant weather observed at this time

METAR text: ZGNN 180000Z VRB02MPS 9999 -RA FEW002 SCT003 OVC033 11/10 Q1012 RETS NOSIG
Conditions at: ZGNN (NANNING/WUXU , CN) observed 0000 UTC 18 February 2019
Temperature: 11.0°C (52°F)
Dewpoint: 10.0°C (50°F) [RH = 94%]
Pressure (altimeter): 29.88 inches Hg (1012.0 mb)
Winds: variable direction winds at 5 MPH (4 knots; 2.1 m/s)
Visibility: 6 or more miles (10+ km)
Ceiling: 3300 feet AGL
Clouds: few clouds at 200 feet AGL
scattered clouds at 300 feet AGL
overcast cloud deck at 3300 feet AGL
Weather: -RA  (light rain)

METAR text: ZGNN 172300Z VRB02MPS 6000 -TSRA SCT003 FEW033CB BKN033 10/10 Q1013 BECMG TL2330 -SHRA
Conditions at: ZGNN (NANNING/WUXU , CN) observed 2300 UTC 17 February 2019
Temperature: 10.0°C (50°F)
Dewpoint: 10.0°C (50°F) [RH = 100%]
Pressure (altimeter): 29.91 inches Hg (1013.0 mb)
Winds: variable direction winds at 5 MPH (4 knots; 2.1 m/s)
Visibility: 4 miles ( 6 km)
Ceiling: 3300 feet AGL
Clouds: scattered clouds at 300 feet AGL
few clouds at 3300 feet AGL
broken clouds at 3300 feet AGL
Weather: -TSRA  (light rain associated with thunderstorm(s))

METAR text: ZGNN 172200Z 02003MPS 9999 SCT004 OVC046 10/09 Q1012 BECMG TL2240 TSRA
Conditions at: ZGNN (NANNING/WUXU , CN) observed 2200 UTC 17 February 2019
Temperature: 10.0°C (50°F)
Dewpoint: 9.0°C (48°F) [RH = 93%]
Pressure (altimeter): 29.88 inches Hg (1012.0 mb)
Winds: from the NNE (20 degrees) at 7 MPH (6 knots; 3.1 m/s)
Visibility: 6 or more miles (10+ km)
Ceiling: 4600 feet AGL
Clouds: scattered clouds at 400 feet AGL
overcast cloud deck at 4600 feet AGL
Weather: no significant weather observed at this time

METAR text: ZGNN 172100Z 10002MPS 070V140 9999 SCT004 OVC046 10/10 Q1012 NOSIG
Conditions at: ZGNN (NANNING/WUXU , CN) observed 2100 UTC 17 February 2019
Temperature: 10.0°C (50°F)
Dewpoint: 10.0°C (50°F) [RH = 100%]
Pressure (altimeter): 29.88 inches Hg (1012.0 mb)
Winds: from the E (100 degrees) at 5 MPH (4 knots; 2.1 m/s)
Visibility: 6 or more miles (10+ km)
Ceiling: 4600 feet AGL
Clouds: scattered clouds at 400 feet AGL
overcast cloud deck at 4600 feet AGL
Weather: no significant weather observed at this time

METAR text: ZGNN 172000Z 08006MPS 9999 -RA SCT003 OVC046 10/09 Q1010 NOSIG
Conditions at: ZGNN (NANNING/WUXU , CN) observed 2000 UTC 17 February 2019
Temperature: 10.0°C (50°F)
Dewpoint: 9.0°C (48°F) [RH = 93%]
Pressure (altimeter): 29.82 inches Hg (1010.0 mb)
Winds: from the E (80 degrees) at 14 MPH (12 knots; 6.2 m/s)
Visibility: 6 or more miles (10+ km)
Ceiling: 4600 feet AGL
Clouds: scattered clouds at 300 feet AGL
overcast cloud deck at 4600 feet AGL
Weather: -RA  (light rain)

METAR text: ZGNN 171900Z 05002MPS 010V090 9999 -RA SCT003 OVC046 10/09 Q1012 NOSIG
Conditions at: ZGNN (NANNING/WUXU , CN) observed 1900 UTC 17 February 2019
Temperature: 10.0°C (50°F)
Dewpoint: 9.0°C (48°F) [RH = 93%]
Pressure (altimeter): 29.88 inches Hg (1012.0 mb)
Winds: from the NE (50 degrees) at 5 MPH (4 knots; 2.1 m/s)
Visibility: 6 or more miles (10+ km)
Ceiling: 4600 feet AGL
Clouds: scattered clouds at 300 feet AGL
overcast cloud deck at 4600 feet AGL
Weather: -RA  (light rain)

METAR text: ZGNN 171800Z VRB01MPS 9999 -SHRA FEW005 FEW036CB BKN036 10/09 Q1015 BECMG TL1830 SHRA
Conditions at: ZGNN (NANNING/WUXU , CN) observed 1800 UTC 17 February 2019
Temperature: 10.0°C (50°F)
Dewpoint: 9.0°C (48°F) [RH = 93%]
Pressure (altimeter): 29.97 inches Hg (1015.0 mb)
Winds: variable direction winds at 2 MPH (2 knots; 1.0 m/s)
Visibility: 6 or more miles (10+ km)
Ceiling: 3600 feet AGL
Clouds: few clouds at 500 feet AGL
few clouds at 3600 feet AGL
broken clouds at 3600 feet AGL
Weather: -SHRA  (light rain showers)

METAR text: ZGNN 171700Z 04003MPS 360V070 9999 -SHRA FEW008 FEW026CB BKN026 10/09 Q1015 RESHRA NOSIG
Conditions at: ZGNN (NANNING/WUXU , CN) observed 1700 UTC 17 February 2019
Temperature: 10.0°C (50°F)
Dewpoint: 9.0°C (48°F) [RH = 93%]
Pressure (altimeter): 29.97 inches Hg (1015.0 mb)
Winds: from the NE (40 degrees) at 7 MPH (6 knots; 3.1 m/s)
Visibility: 6 or more miles (10+ km)
Ceiling: 2600 feet AGL
Clouds: few clouds at 800 feet AGL
few clouds at 2600 feet AGL
broken clouds at 2600 feet AGL
Weather: -SHRA  (light rain showers)

Forecast for: ZGNN (NANNING/WUXU , CN)
Text: TAF ZGNN 190305Z 1906/2006 06003MPS 5000 BR SCT007 OVC030 TX16/1907Z TN10/1922Z
Forecast period: 0600 UTC 19 February 2019 to 0600 UTC 20 February 2019
Forecast type: FROM: standard forecast or significant change
Winds: from the ENE (60 degrees) at 7 MPH (6 knots; 3.1 m/s)
Visibility: 3 miles (5 km)
Ceiling: 3000 feet AGL
Clouds: scattered clouds at 700 feet AGL
overcast cloud deck at 3000 feet AGL
Weather: BR  (mist)
Text: TEMPO 1920/2002 2000
Forecast period: 2000 UTC 19 February 2019 to 0200 UTC 20 February 2019
Forecast type: TEMPORARY: The following changes expected for less than half the time period
Visibility: 1.24 miles (2.00 km)
Ceiling: unknown
Clouds: missing
Weather: no significant weather forecast for this period